Aérodrome :
LOGIN :

S'inscrire | Disclaimer

   EN    FR    IT 

 










Légende :    VFR   VFR Marginal   IFR   IFR Intensif   IFR Très Intensif
Visi : 
Plafond : 
>= 8 km
>= 3000ft
5 à 8 km
1000 à 3000 ft
1500m à 5 km
500 à 1000 ft
800 à 1500m
200 à 500 ft
< 800m
< 200 ft
Symboles :   Orages  Brouillard  Fortes neiges  Fortes précipitations  Vent > 20 kt
SIGMETs :   Divers  Orages  Givrage  Turbulence  Onde Orograph.  Cendres Volcan.






- Altitude de l'aérodrome : 25 ft
- Code IATA : QCY


EGXC - RAF Coningsby

DERNIER METAR :
  • 241750Z 31011KT CAVOK 17/05 Q1006 RMK BLU

METARs EXPIRÉS :
  • 241650Z 29014KT 9999 FEW045 18/04 Q1006 RMK BLU
  • 241550Z 30006KT 9999 FEW035CB SCT050 17/07 Q1005 NOSIG RMK BLU BLU
  • 241520Z 30006KT 9999 VCSH FEW035CB SCT040 15/07 Q1005 NOSIG RMK BLU BLU
  • 241450Z 25009KT 9999 FEW025CB SCT040 17/07 Q1005 TEMPO 7000 SHRA RMK BLU TEMPO WHT

TAF TAF EGXC
Valide du 24 à 18h jusqu'au 25 à 12h UTC


241620Z 2418/2512 24008KT 9999 FEW035
BECMG 2507/2510 BKN020
PROB30
TEMPO 2510/2512 7000 -RA BKN014



MET'MAP, la Météo Aéronautique d'un coup d'oeil ! - Copyright ORBIFLY Décembre 2007 - Disclaimer

ORBIFLY MET'MAP TEAM :

Programmation & Développement : Alexandra Zaïnal
Sur une idée originale de : Baudouin d'Aumeries
Soutien technique & logistique : Manuel Goepfert
Assistance : Marc-Olivier Méhu

Contact : metmap@orbifly.com




SOURCES & CREDITS :

   NOAA